Time;durP1;ratioP1;P1;durP2;ratioP2;P2;SDS_P1;SDS_P2;PMS_P1;PMS_P2;Temp;Humidity;BMP_temperature;BMP_pressure;BME280_temperature;BME280_humidity;BME280_pressure;Samples;Min_cycle;Max_cycle;Signal;HPM_P1;HPM_P2
2023/09/21 00:01:52;;;;;;;;;;;;;;;14.00;48.48;94537.56;4954755;28;20512;-68
2023/09/21 00:04:19;;;;;;;;;;;;;;;14.00;48.34;94540.25;4954402;28;20076;-67
2023/09/21 00:06:44;;;;;;;;;;;;;;;13.93;48.63;94545.66;4956119;28;19958;-68
2023/09/21 00:09:10;;;;;;;;;;;;;;;14.01;48.12;94534.63;4968228;28;19972;-68
2023/09/21 00:11:37;;;;;;;;;;;;;;;13.99;47.74;94531.38;4956117;28;20367;-68
2023/09/21 00:14:02;;;;;;;;;;;;;;;14.02;47.90;94530.94;4948486;28;19964;-68
2023/09/21 00:16:28;;;;;;;;;;;;;;;14.05;47.93;94524.31;4950648;28;20307;-68
2023/09/21 00:18:53;;;;;;;;;;;;;;;13.99;47.32;94523.34;4948323;28;20384;-67
2023/09/21 00:21:19;;;;;;;;;;;;;;;13.98;47.86;94523.56;4955029;28;20467;-67
2023/09/21 00:23:47;;;;;;;;;;;;;;;13.92;48.00;94525.28;4955789;28;20417;-67
2023/09/21 00:26:12;;;;;;;;;;;;;;;13.94;48.55;94517.88;4955760;28;20033;-67
2023/09/21 00:28:38;;;;;;;;;;;;;;;13.90;47.62;94514.81;4945074;28;20553;-68
2023/09/21 00:31:04;;;;;;;;;;;;;;;13.83;48.46;94514.88;4954342;28;19949;-67
2023/09/21 00:33:30;;;;;;;;;;;;;;;13.95;47.11;94519.50;4946328;28;20580;-67
2023/09/21 00:35:58;;;;;;;;;;;;;;;13.94;48.05;94515.19;4950646;28;19965;-67
2023/09/21 00:38:24;;;;;;;;;;;;;;;13.86;47.52;94520.81;4951735;28;20049;-68
2023/09/21 00:40:49;;;;;;;;;;;;;;;13.85;48.10;94516.50;4951525;28;19978;-68
2023/09/21 00:43:20;;;;;;;;;;;;;;;13.77;47.78;94512.31;4963812;28;19960;-67
2023/09/21 00:45:46;;;;;;;;;;;;;;;13.67;49.96;94516.31;4949714;28;20028;-67
2023/09/21 00:48:20;;;;;;;;;;;;;;;13.70;49.27;94510.50;4950579;28;20675;-67
2023/09/21 00:50:47;;;;;;;;;;;;;;;13.76;48.37;94499.94;4951624;28;20517;-68
2023/09/21 00:53:13;;;;;;;;;;;;;;;13.76;48.40;94505.28;4945882;28;20203;-67
2023/09/21 00:55:40;;;;;;;;;;;;;;;13.79;47.38;94504.84;4965665;28;19950;-67
2023/09/21 00:58:06;;;;;;;;;;;;;;;13.81;47.83;94502.78;4945335;28;19974;-67
2023/09/21 01:00:31;;;;;;;;;;;;;;;13.81;48.09;94500.09;4970219;23;19960;-69
2023/09/21 01:03:07;;;;;;;;;;;;;;;13.81;47.57;94487.53;4954348;28;19963;-68
2023/09/21 01:05:36;;;;;;;;;;;;;;;13.73;47.47;94501.22;4924169;29;20049;-68
2023/09/21 01:08:04;;;;;;;;;;;;;;;13.78;47.62;94500.56;4921471;28;19985;-68
2023/09/21 01:10:29;;;;;;;;;;;;;;;13.67;47.89;94491.44;4935017;29;19943;-68
2023/09/21 01:12:55;;;;;;;;;;;;;;;13.68;48.55;94480.53;4918965;29;19965;-68
2023/09/21 01:15:21;;;;;;;;;;;;;;;13.73;47.75;94474.47;4927489;29;19956;-68
2023/09/21 01:17:46;;;;;;;;;;;;;;;13.75;47.62;94479.59;4915258;29;20023;-68
2023/09/21 01:20:32;;;;;;;;;;;;;;;13.79;47.26;94478.94;4920822;29;20058;-68
2023/09/21 01:22:57;;;;;;;;;;;;;;;13.72;48.67;94474.69;4921318;29;19978;-68
2023/09/21 01:25:22;;;;;;;;;;;;;;;13.62;48.68;94469.88;4921216;29;20799;-68
2023/09/21 01:27:51;;;;;;;;;;;;;;;13.63;49.38;94468.88;4921008;29;20004;-68
2023/09/21 01:30:16;;;;;;;;;;;;;;;13.63;48.97;94472.34;4916513;29;20810;-68
2023/09/21 01:32:42;;;;;;;;;;;;;;;13.58;49.36;94469.53;4920881;29;20046;-68
2023/09/21 01:35:08;;;;;;;;;;;;;;;13.53;49.27;94469.41;4921668;29;20634;-68
2023/09/21 01:37:35;;;;;;;;;;;;;;;13.53;48.40;94461.38;4918714;29;20649;-68
2023/09/21 01:40:00;;;;;;;;;;;;;;;13.50;48.85;94461.81;4919856;29;20849;-68
2023/09/21 01:42:25;;;;;;;;;;;;;;;13.56;47.89;94455.56;4921075;29;19989;-68
2023/09/21 01:44:51;;;;;;;;;;;;;;;13.49;49.28;94454.84;4920837;28;19971;-68
2023/09/21 01:47:20;;;;;;;;;;;;;;;13.50;48.72;94453.81;4935601;28;19958;-68
2023/09/21 01:49:46;;;;;;;;;;;;;;;13.54;49.09;94457.66;4920835;29;19978;-68
2023/09/21 01:52:11;;;;;;;;;;;;;;;13.52;49.02;94451.72;4920722;29;19967;-69
2023/09/21 01:54:38;;;;;;;;;;;;;;;13.57;48.17;94443.84;4929766;29;20151;-68
2023/09/21 01:57:07;;;;;;;;;;;;;;;13.52;48.58;94449.84;4917241;29;19970;-68
2023/09/21 01:59:33;;;;;;;;;;;;;;;13.42;49.50;94449.56;4919770;29;20579;-68
2023/09/21 02:01:58;;;;;;;;;;;;;;;13.51;48.73;94444.72;4919785;29;19971;-68
2023/09/21 02:04:24;;;;;;;;;;;;;;;13.38;48.54;94441.19;4920222;29;20143;-68
2023/09/21 02:06:49;;;;;;;;;;;;;;;13.40;48.33;94439.09;4920532;29;19993;-68
2023/09/21 02:09:15;;;;;;;;;;;;;;;13.42;48.70;94437.03;4919902;29;19971;-68
2023/09/21 02:11:40;;;;;;;;;;;;;;;13.38;49.11;94438.53;4919797;29;19956;-68
2023/09/21 02:14:05;;;;;;;;;;;;;;;13.48;47.69;94437.16;4920207;29;19985;-68
2023/09/21 02:16:31;;;;;;;;;;;;;;;13.54;47.57;94438.94;4915998;29;20252;-68
2023/09/21 02:18:56;;;;;;;;;;;;;;;13.43;48.32;94435.97;4930080;29;20089;-68
2023/09/21 02:21:22;;;;;;;;;;;;;;;13.35;48.14;94443.47;4916772;29;20078;-68
2023/09/21 02:23:47;;;;;;;;;;;;;;;13.41;47.64;94437.25;4920595;29;19945;-68
2023/09/21 02:26:12;;;;;;;;;;;;;;;13.39;47.83;94434.78;4928822;29;20052;-68
2023/09/21 02:28:37;;;;;;;;;;;;;;;13.41;48.58;94432.72;4926609;29;20010;-68
2023/09/21 02:31:06;;;;;;;;;;;;;;;13.39;48.37;94436.66;4922467;29;19992;-68
2023/09/21 02:33:32;;;;;;;;;;;;;;;13.43;47.63;94433.31;4927637;28;20063;-68
2023/09/21 02:35:58;;;;;;;;;;;;;;;13.39;49.20;94432.13;4922688;29;20011;-69
2023/09/21 02:38:23;;;;;;;;;;;;;;;13.31;48.85;94430.59;4917508;29;20018;-68
2023/09/21 02:40:48;;;;;;;;;;;;;;;13.21;49.39;94430.28;4937893;28;19992;-69
2023/09/21 02:43:15;;;;;;;;;;;;;;;13.42;47.46;94421.00;4935005;29;19991;-68
2023/09/21 02:45:40;;;;;;;;;;;;;;;13.43;48.45;94413.78;4922719;29;19981;-68
2023/09/21 02:48:06;;;;;;;;;;;;;;;13.48;48.38;94421.13;4935675;28;19975;-68
2023/09/21 02:50:32;;;;;;;;;;;;;;;13.46;48.68;94407.19;4920117;29;19956;-68
2023/09/21 02:52:57;;;;;;;;;;;;;;;13.43;47.85;94406.56;4925026;28;20039;-68
2023/09/21 02:55:23;;;;;;;;;;;;;;;13.45;48.14;94395.66;4920558;29;20311;-68
2023/09/21 02:57:54;;;;;;;;;;;;;;;13.46;47.52;94397.28;4926632;29;19978;-68
2023/09/21 03:00:39;;;;;;;;;;;;;;;13.44;47.87;94391.34;4920061;29;20042;-68
2023/09/21 03:03:05;;;;;;;;;;;;;;;13.41;47.70;94387.28;4921400;29;19965;-68
2023/09/21 03:05:32;;;;;;;;;;;;;;;13.38;47.92;94386.91;4919197;29;20033;-68
2023/09/21 03:07:58;;;;;;;;;;;;;;;13.38;48.11;94385.06;4926715;29;19957;-68
2023/09/21 03:10:25;;;;;;;;;;;;;;;13.37;48.75;94372.75;4919201;29;19966;-68
2023/09/21 03:12:51;;;;;;;;;;;;;;;13.37;47.96;94378.09;4925325;28;19980;-68
2023/09/21 03:15:18;;;;;;;;;;;;;;;13.33;47.44;94365.41;4927292;29;19952;-69
2023/09/21 03:17:43;;;;;;;;;;;;;;;13.32;47.86;94369.91;4915698;29;19981;-69
2023/09/21 03:20:11;;;;;;;;;;;;;;;13.28;48.27;94358.03;4919019;29;20011;-68
2023/09/21 03:22:37;;;;;;;;;;;;;;;13.20;48.25;94356.50;4920279;29;20476;-71
2023/09/21 03:25:02;;;;;;;;;;;;;;;13.24;48.45;94357.69;4922902;29;19983;-71
2023/09/21 03:27:27;;;;;;;;;;;;;;;13.26;48.45;94352.13;4927638;29;20073;-71
2023/09/21 03:29:54;;;;;;;;;;;;;;;13.09;48.91;94349.25;4924977;29;20025;-71
2023/09/21 03:32:19;;;;;;;;;;;;;;;13.17;48.49;94341.75;4922651;29;19979;-71
2023/09/21 03:34:45;;;;;;;;;;;;;;;13.19;48.37;94338.84;4931032;29;20031;-71
2023/09/21 03:37:11;;;;;;;;;;;;;;;13.15;48.84;94346.50;4924887;28;20013;-71
2023/09/21 03:39:37;;;;;;;;;;;;;;;13.18;48.07;94339.88;4926959;29;20295;-71
2023/09/21 03:42:03;;;;;;;;;;;;;;;13.20;48.36;94342.31;4932452;29;19974;-71
2023/09/21 03:44:28;;;;;;;;;;;;;;;13.18;48.67;94337.22;4926581;29;20201;-71
2023/09/21 03:46:54;;;;;;;;;;;;;;;13.18;48.10;94346.06;4931082;29;20077;-71
2023/09/21 03:49:21;;;;;;;;;;;;;;;13.27;47.92;94348.41;4923094;29;20071;-71
2023/09/21 03:51:47;;;;;;;;;;;;;;;13.28;48.51;94336.66;4920069;28;19954;-71
2023/09/21 03:54:13;;;;;;;;;;;;;;;13.36;47.55;94339.00;4924199;29;20112;-71
2023/09/21 03:56:39;;;;;;;;;;;;;;;13.40;47.68;94334.03;4918401;29;19968;-71
2023/09/21 03:59:06;;;;;;;;;;;;;;;13.35;47.86;94326.69;4928170;29;19978;-71
2023/09/21 04:01:34;;;;;;;;;;;;;;;13.37;47.69;94332.66;4919631;29;19981;-71
2023/09/21 04:04:05;;;;;;;;;;;;;;;13.43;47.54;94326.38;4921919;29;19964;-71
2023/09/21 04:06:31;;;;;;;;;;;;;;;13.50;46.99;94320.94;4919488;29;19955;-71
2023/09/21 04:08:56;;;;;;;;;;;;;;;13.44;47.53;94324.53;4928325;29;19968;-71
2023/09/21 04:11:22;;;;;;;;;;;;;;;13.41;47.79;94308.94;4919787;29;20497;-71
2023/09/21 04:13:47;;;;;;;;;;;;;;;13.54;47.22;94313.28;4929048;28;20842;-71
2023/09/21 04:16:13;;;;;;;;;;;;;;;13.56;47.07;94306.66;4924154;29;20401;-71
2023/09/21 04:18:38;;;;;;;;;;;;;;;13.12;47.66;94314.88;4919299;29;20030;-71
2023/09/21 04:21:07;;;;;;;;;;;;;;;13.39;47.48;94311.00;4926545;28;20006;-71
2023/09/21 04:23:32;;;;;;;;;;;;;;;13.48;47.36;94308.84;4931527;29;20016;-71
2023/09/21 04:25:57;;;;;;;;;;;;;;;13.62;46.75;94310.28;4918308;28;20341;-71
2023/09/21 04:28:22;;;;;;;;;;;;;;;13.62;46.83;94310.28;4929663;29;20395;-71
2023/09/21 04:30:48;;;;;;;;;;;;;;;13.62;47.25;94309.44;4914695;28;19995;-72
2023/09/21 04:33:13;;;;;;;;;;;;;;;13.52;47.63;94305.47;4928898;29;20441;-70
2023/09/21 04:35:38;;;;;;;;;;;;;;;13.62;46.65;94315.63;4925341;29;19955;-72
2023/09/21 04:38:04;;;;;;;;;;;;;;;13.50;47.07;94312.91;4926872;28;20589;-70
2023/09/21 04:40:30;;;;;;;;;;;;;;;13.56;47.08;94308.50;4925494;29;19985;-71
2023/09/21 04:42:56;;;;;;;;;;;;;;;13.64;46.82;94302.84;4935130;29;19958;-70
2023/09/21 04:45:21;;;;;;;;;;;;;;;13.67;46.71;94307.72;4925448;28;19976;-70
2023/09/21 04:47:49;;;;;;;;;;;;;;;13.51;47.28;94311.06;4934038;28;19953;-72
2023/09/21 04:50:14;;;;;;;;;;;;;;;13.61;46.91;94313.16;4922777;29;20564;-69
2023/09/21 04:52:39;;;;;;;;;;;;;;;13.56;47.59;94305.81;4917689;29;19967;-70
2023/09/21 04:55:08;;;;;;;;;;;;;;;13.60;46.71;94304.31;4924806;29;19999;-70
2023/09/21 04:57:33;;;;;;;;;;;;;;;13.56;46.80;94300.47;4922437;29;19980;-71
2023/09/21 04:59:58;;;;;;;;;;;;;;;13.64;47.18;94304.69;4925834;29;19981;-70
2023/09/21 05:02:24;;;;;;;;;;;;;;;13.69;46.55;94299.47;4930004;28;20510;-72
2023/09/21 05:04:50;;;;;;;;;;;;;;;13.49;47.97;94303.25;4924062;28;20090;-70
2023/09/21 05:07:17;;;;;;;;;;;;;;;13.51;47.21;94298.50;4917408;29;20409;-70
2023/09/21 05:09:42;;;;;;;;;;;;;;;13.64;46.91;94302.84;4923778;29;19967;-70
2023/09/21 05:12:08;;;;;;;;;;;;;;;13.55;47.25;94297.00;4924404;28;19968;-69
2023/09/21 05:14:33;;;;;;;;;;;;;;;13.54;47.63;94300.72;4924508;29;19981;-70
2023/09/21 05:16:58;;;;;;;;;;;;;;;13.68;47.29;94304.00;4912482;29;19997;-69
2023/09/21 05:19:24;;;;;;;;;;;;;;;13.84;47.20;94307.06;4922016;29;19968;-71
2023/09/21 05:21:50;;;;;;;;;;;;;;;13.86;46.91;94304.97;4919105;29;20052;-71
2023/09/21 05:24:16;;;;;;;;;;;;;;;13.94;46.74;94301.97;4920824;29;20465;-70
2023/09/21 05:26:41;;;;;;;;;;;;;;;14.06;46.31;94303.84;4928297;29;19955;-70
2023/09/21 05:29:06;;;;;;;;;;;;;;;14.04;46.44;94312.09;4927806;28;19970;-71
2023/09/21 05:31:31;;;;;;;;;;;;;;;14.10;46.29;94307.66;4921222;29;19946;-70
2023/09/21 05:33:57;;;;;;;;;;;;;;;14.02;46.60;94316.06;4930280;29;20430;-70
2023/09/21 05:36:22;;;;;;;;;;;;;;;14.00;46.97;94302.91;4916639;28;19979;-70
2023/09/21 05:38:48;;;;;;;;;;;;;;;14.06;46.34;94306.50;4924074;29;19979;-70
2023/09/21 05:41:13;;;;;;;;;;;;;;;14.02;46.27;94306.16;4922996;29;19969;-70
2023/09/21 05:43:40;;;;;;;;;;;;;;;14.09;46.37;94303.38;4921027;29;20011;-70
2023/09/21 05:46:05;;;;;;;;;;;;;;;14.08;46.61;94302.56;4904098;29;19969;-71
2023/09/21 05:48:32;;;;;;;;;;;;;;;14.11;46.42;94303.94;4909584;29;20331;-69
2023/09/21 05:50:57;;;;;;;;;;;;;;;14.24;46.24;94305.56;4905036;29;19951;-72
2023/09/21 05:53:22;;;;;;;;;;;;;;;14.20;46.48;94297.22;4908500;29;19966;-71
2023/09/21 05:55:48;;;;;;;;;;;;;;;14.24;46.57;94291.41;4902528;29;19948;-69
2023/09/21 05:58:13;;;;;;;;;;;;;;;14.23;46.49;94292.41;4908401;29;19967;-70
2023/09/21 06:00:39;;;;;;;;;;;;;;;14.33;46.41;94287.31;4909713;29;19973;-71
2023/09/21 06:03:04;;;;;;;;;;;;;;;14.33;46.44;94289.97;4919778;29;19951;-70
2023/09/21 06:05:29;;;;;;;;;;;;;;;14.51;45.84;94286.34;4920957;29;20000;-70
2023/09/21 06:07:56;;;;;;;;;;;;;;;14.53;45.94;94286.94;4934530;28;20147;-71
2023/09/21 06:10:30;;;;;;;;;;;;;;;14.55;46.19;94292.06;4925311;29;19943;-71
2023/09/21 06:12:56;;;;;;;;;;;;;;;14.67;45.82;94286.66;4934054;29;19957;-70
2023/09/21 06:15:21;;;;;;;;;;;;;;;14.77;45.59;94289.59;4923627;29;19949;-69
2023/09/21 06:17:47;;;;;;;;;;;;;;;14.85;45.63;94288.38;4917362;29;20457;-72
2023/09/21 06:20:12;;;;;;;;;;;;;;;14.90;45.64;94287.69;4925270;29;19926;-71
2023/09/21 06:22:38;;;;;;;;;;;;;;;15.00;45.65;94281.69;4921094;29;20356;-71
2023/09/21 06:25:06;;;;;;;;;;;;;;;15.12;44.90;94284.34;4915429;29;19963;-69
2023/09/21 06:27:31;;;;;;;;;;;;;;;15.08;44.79;94282.16;4910843;29;19936;-70
2023/09/21 06:29:58;;;;;;;;;;;;;;;15.22;44.77;94289.88;4911091;29;19963;-70
2023/09/21 06:32:23;;;;;;;;;;;;;;;15.34;44.97;94293.31;4909810;29;20124;-71
2023/09/21 06:34:49;;;;;;;;;;;;;;;15.42;44.55;94294.81;4911505;29;20359;-69
2023/09/21 06:37:14;;;;;;;;;;;;;;;15.34;44.61;94296.00;4910714;29;19957;-71
2023/09/21 06:39:40;;;;;;;;;;;;;;;15.43;44.19;94301.00;4911541;29;20119;-69
2023/09/21 06:42:05;;;;;;;;;;;;;;;15.96;43.85;94304.31;4912289;29;19960;-70
2023/09/21 06:44:31;;;;;;;;;;;;;;;15.78;43.79;94299.19;4911818;29;19962;-71
2023/09/21 06:46:56;;;;;;;;;;;;;;;15.93;43.44;94296.75;4910861;28;19922;-70
2023/09/21 06:49:21;;;;;;;;;;;;;;;15.72;44.18;94288.38;4909114;28;20059;-69
2023/09/21 06:51:49;;;;;;;;;;;;;;;16.15;42.88;94277.22;4910462;29;19946;-68
2023/09/21 06:54:14;;;;;;;;;;;;;;;16.32;42.63;94273.69;4909953;29;20052;-68
2023/09/21 06:56:39;;;;;;;;;;;;;;;16.62;42.25;94280.53;4912267;29;19963;-68
2023/09/21 06:59:06;;;;;;;;;;;;;;;16.37;42.45;94284.50;4910047;29;20005;-68
2023/09/21 07:01:32;;;;;;;;;;;;;;;16.51;42.23;94291.16;4910475;29;20006;-68
2023/09/21 07:03:57;;;;;;;;;;;;;;;16.74;41.53;94286.59;4909855;29;20678;-68
2023/09/21 07:06:22;;;;;;;;;;;;;;;16.71;41.63;94295.16;4911538;29;19927;-68
2023/09/21 07:08:47;;;;;;;;;;;;;;;17.17;41.55;94296.81;4909892;29;20482;-68
2023/09/21 07:11:14;;;;;;;;;;;;;;;16.98;41.45;94282.84;4912354;29;20038;-68
2023/09/21 07:13:39;;;;;;;;;;;;;;;16.50;42.27;94273.41;4910929;29;19959;-68
2023/09/21 07:16:05;;;;;;;;;;;;;;;16.51;42.93;94279.59;4915492;29;20300;-68
2023/09/21 07:18:31;;;;;;;;;;;;;;;17.15;40.86;94272.84;4915735;29;19927;-68
2023/09/21 07:20:58;;;;;;;;;;;;;;;16.67;42.44;94272.53;4916926;29;20250;-68
2023/09/21 07:23:23;;;;;;;;;;;;;;;17.20;41.92;94274.75;4924084;29;20414;-68
2023/09/21 07:25:49;;;;;;;;;;;;;;;17.32;40.93;94263.03;4910551;29;20760;-68
2023/09/21 07:28:14;;;;;;;;;;;;;;;17.51;41.33;94264.31;4911218;29;19956;-68
2023/09/21 07:30:40;;;;;;;;;;;;;;;17.54;41.21;94271.03;4911350;29;20739;-68
2023/09/21 07:33:06;;;;;;;;;;;;;;;17.36;41.22;94269.53;4910738;29;20284;-68
2023/09/21 07:35:32;;;;;;;;;;;;;;;17.78;40.71;94270.72;4923180;29;19971;-68
2023/09/21 07:37:57;;;;;;;;;;;;;;;17.79;40.41;94267.75;4910326;29;19971;-68
2023/09/21 07:40:22;;;;;;;;;;;;;;;17.92;39.96;94273.81;4908833;29;20535;-68
2023/09/21 07:42:48;;;;;;;;;;;;;;;18.07;40.33;94269.59;4910501;29;19931;-68
2023/09/21 07:45:13;;;;;;;;;;;;;;;16.89;42.68;94272.53;4908381;29;19964;-68
2023/09/21 07:47:39;;;;;;;;;;;;;;;17.73;41.23;94268.81;4907371;29;21133;-68
2023/09/21 07:50:04;;;;;;;;;;;;;;;17.10;43.04;94275.44;4909303;29;19931;-68
2023/09/21 07:52:30;;;;;;;;;;;;;;;17.63;41.54;94269.53;4911073;29;19953;-68
2023/09/21 07:54:56;;;;;;;;;;;;;;;18.04;40.97;94268.25;4910697;29;20685;-68
2023/09/21 07:57:21;;;;;;;;;;;;;;;18.41;40.82;94271.97;4913287;28;19957;-68
2023/09/21 07:59:47;;;;;;;;;;;;;;;17.68;41.72;94268.75;4920685;28;20446;-68
2023/09/21 08:02:12;;;;;;;;;;;;;;;18.48;40.86;94269.84;4908473;29;20066;-69
2023/09/21 08:04:38;;;;;;;;;;;;;;;17.31;42.25;94283.75;4907998;29;20026;-71
2023/09/21 08:07:05;;;;;;;;;;;;;;;17.54;42.00;94279.94;4908482;29;20320;-70
2023/09/21 08:09:30;;;;;;;;;;;;;;;18.10;41.08;94277.97;4908986;29;20619;-70
2023/09/21 08:11:55;;;;;;;;;;;;;;;18.46;40.97;94280.06;4909539;29;20135;-70
2023/09/21 08:14:21;;;;;;;;;;;;;;;18.90;39.21;94284.34;4907759;29;20442;-69
2023/09/21 08:16:46;;;;;;;;;;;;;;;18.82;39.59;94282.16;4909336;29;20696;-70
2023/09/21 08:19:11;;;;;;;;;;;;;;;19.40;38.44;94280.44;4907502;29;20047;-69
2023/09/21 08:21:37;;;;;;;;;;;;;;;18.82;39.30;94280.28;4906551;29;19927;-70
2023/09/21 08:24:02;;;;;;;;;;;;;;;18.62;40.29;94282.88;4908152;29;19927;-71
2023/09/21 08:26:28;;;;;;;;;;;;;;;19.27;38.48;94279.91;4908564;29;19927;-69
2023/09/21 08:28:53;;;;;;;;;;;;;;;19.72;37.79;94287.53;4909349;29;19934;-69
2023/09/21 08:31:20;;;;;;;;;;;;;;;19.97;37.67;94273.25;4909337;29;20174;-68
2023/09/21 08:33:46;;;;;;;;;;;;;;;20.17;37.26;94284.28;4908911;29;20432;-70
2023/09/21 08:36:15;;;;;;;;;;;;;;;20.05;37.03;94287.25;4909045;29;19926;-69
2023/09/21 08:38:40;;;;;;;;;;;;;;;20.06;36.89;94278.88;4908404;29;20082;-70
2023/09/21 08:41:06;;;;;;;;;;;;;;;20.06;36.90;94270.78;4911813;29;19926;-68
2023/09/21 08:43:31;;;;;;;;;;;;;;;20.56;36.82;94280.97;4911977;28;19967;-71
2023/09/21 08:45:56;;;;;;;;;;;;;;;20.39;36.01;94275.09;4908063;29;19927;-69
2023/09/21 08:48:22;;;;;;;;;;;;;;;19.24;38.63;94283.09;4909372;29;19965;-69
2023/09/21 08:50:50;;;;;;;;;;;;;;;19.68;38.45;94286.44;4914521;29;19976;-69
2023/09/21 08:53:20;;;;;;;;;;;;;;;20.07;37.50;94267.03;4909412;29;20803;-70
2023/09/21 08:55:48;;;;;;;;;;;;;;;19.65;37.97;94268.88;4907512;29;20014;-69
2023/09/21 08:58:14;;;;;;;;;;;;;;;19.88;37.43;94264.03;4909327;29;20678;-70
2023/09/21 09:00:39;;;;;;;;;;;;;;;20.03;37.24;94268.66;4907459;29;19970;-71
2023/09/21 09:03:05;;;;;;;;;;;;;;;19.41;38.60;94269.41;4907425;29;19923;-69
2023/09/21 09:05:31;;;;;;;;;;;;;;;19.39;38.39;94265.34;4907907;29;20030;-70
2023/09/21 09:07:57;;;;;;;;;;;;;;;19.50;38.18;94264.28;4908617;29;19949;-71
2023/09/21 09:10:23;;;;;;;;;;;;;;;19.12;38.98;94256.38;4908113;29;19923;-69
2023/09/21 09:12:49;;;;;;;;;;;;;;;19.11;39.47;94262.84;4910193;29;20334;-70
2023/09/21 09:15:15;;;;;;;;;;;;;;;19.10;39.62;94263.13;4911699;29;20360;-70
2023/09/21 09:17:40;;;;;;;;;;;;;;;19.24;38.86;94261.50;4912636;29;19938;-70
2023/09/21 09:20:06;;;;;;;;;;;;;;;19.30;38.59;94257.78;4910560;29;20094;-70
2023/09/21 09:22:34;;;;;;;;;;;;;;;19.26;39.56;94251.28;4911084;29;20034;-70
2023/09/21 09:25:12;;;;;;;;;;;;;;;19.09;39.75;94254.19;4913865;28;19930;-70
2023/09/21 09:27:38;;;;;;;;;;;;;;;19.12;39.05;94240.19;4911862;29;19934;-70
2023/09/21 09:30:08;;;;;;;;;;;;;;;19.14;40.38;94240.72;4910501;29;19926;-70
2023/09/21 09:32:54;;;;;;;;;;;;;;;19.27;39.45;94244.81;4911717;29;20343;-70
2023/09/21 09:35:20;;;;;;;;;;;;;;;19.45;39.95;94240.78;4923363;29;19927;-70
2023/09/21 09:37:47;;;;;;;;;;;;;;;19.44;40.34;94246.47;4911660;29;20056;-70
2023/09/21 09:40:23;;;;;;;;;;;;;;;19.28;39.85;94242.94;4912465;29;20049;-70
2023/09/21 09:42:49;;;;;;;;;;;;;;;19.38;40.42;94237.56;4911688;29;19935;-70
2023/09/21 09:45:24;;;;;;;;;;;;;;;19.50;39.45;94231.91;4911923;29;19927;-70
2023/09/21 09:48:01;;;;;;;;;;;;;;;19.38;39.36;94234.84;4913770;29;20002;-70
2023/09/21 09:50:30;;;;;;;;;;;;;;;19.24;40.40;94231.84;4915721;29;19953;-70
2023/09/21 09:53:01;;;;;;;;;;;;;;;19.47;39.78;94235.13;4917070;29;20051;-70
2023/09/21 09:55:31;;;;;;;;;;;;;;;19.61;40.39;94221.13;4917512;29;19925;-70
2023/09/21 09:57:56;;;;;;;;;;;;;;;19.66;39.18;94215.72;4910904;29;20387;-70
2023/09/21 10:00:22;;;;;;;;;;;;;;;19.84;38.99;94212.47;4910415;29;20451;-70
2023/09/21 10:02:48;;;;;;;;;;;;;;;19.86;38.96;94223.00;4927474;28;19923;-70
2023/09/21 10:05:14;;;;;;;;;;;;;;;19.81;38.32;94207.59;4910584;29;19926;-70
2023/09/21 10:07:39;;;;;;;;;;;;;;;19.84;39.32;94208.94;4917830;29;19957;-70
2023/09/21 10:10:08;;;;;;;;;;;;;;;19.89;39.10;94203.56;4910011;29;19938;-70
2023/09/21 10:12:33;;;;;;;;;;;;;;;19.92;39.37;94194.09;4909100;29;19939;-71
2023/09/21 10:14:58;;;;;;;;;;;;;;;19.97;38.96;94192.22;4922495;29;20378;-70
2023/09/21 10:17:24;;;;;;;;;;;;;;;20.03;38.71;94179.53;4912303;29;19992;-71
2023/09/21 10:19:49;;;;;;;;;;;;;;;20.08;38.51;94187.59;4911234;28;19965;-71
2023/09/21 10:22:21;;;;;;;;;;;;;;;20.03;37.84;94184.94;4913557;29;20174;-69
2023/09/21 10:24:49;;;;;;;;;;;;;;;20.02;38.93;94174.41;4908631;29;20054;-68
2023/09/21 10:27:14;;;;;;;;;;;;;;;20.27;38.50;94186.19;4909842;29;19923;-68
2023/09/21 10:29:40;;;;;;;;;;;;;;;20.36;38.64;94189.94;4913118;28;19934;-68
2023/09/21 10:32:08;;;;;;;;;;;;;;;20.28;38.83;94182.41;4924417;28;20474;-69
2023/09/21 10:34:33;;;;;;;;;;;;;;;20.14;37.88;94176.78;4910886;29;20207;-68
2023/09/21 10:37:01;;;;;;;;;;;;;;;20.39;38.15;94183.19;4911646;29;19959;-69
2023/09/21 10:39:26;;;;;;;;;;;;;;;20.45;38.22;94182.06;4908028;29;20390;-68
2023/09/21 10:41:55;;;;;;;;;;;;;;;20.41;37.77;94184.53;4908811;28;19926;-68
2023/09/21 10:44:39;;;;;;;;;;;;;;;20.43;38.25;94179.66;4909386;29;20241;-68
2023/09/21 10:47:05;;;;;;;;;;;;;;;20.40;37.33;94182.94;4909144;29;19930;-68
2023/09/21 10:49:33;;;;;;;;;;;;;;;20.27;37.90;94180.78;4909019;29;19927;-68
2023/09/21 10:51:59;;;;;;;;;;;;;;;20.53;38.15;94180.72;4907747;29;19922;-68
2023/09/21 10:54:24;;;;;;;;;;;;;;;20.64;38.02;94178.78;4907887;29;19924;-68
2023/09/21 10:56:49;;;;;;;;;;;;;;;20.67;36.96;94175.53;4906984;29;19989;-68
2023/09/21 10:59:15;;;;;;;;;;;;;;;20.53;37.35;94172.59;4910623;29;19931;-69
2023/09/21 11:01:40;;;;;;;;;;;;;;;20.72;37.05;94167.38;4908997;29;19969;-67
2023/09/21 11:04:05;;;;;;;;;;;;;;;20.59;37.06;94163.38;4911410;29;19968;-79
2023/09/21 11:06:31;;;;;;;;;;;;;;;20.74;36.70;94166.03;4912716;29;20348;-79
2023/09/21 11:08:56;;;;;;;;;;;;;;;20.79;36.69;94157.06;4924820;28;20472;-80
2023/09/21 11:11:21;;;;;;;;;;;;;;;20.83;36.77;94155.44;4911512;29;19980;-79
2023/09/21 11:13:50;;;;;;;;;;;;;;;20.82;36.36;94143.00;4914276;29;19931;-81
2023/09/21 11:16:16;;;;;;;;;;;;;;;21.12;37.16;94134.97;4926501;28;20079;-81
2023/09/21 11:18:41;;;;;;;;;;;;;;;21.28;35.94;94130.25;4913354;29;19926;-78
2023/09/21 11:21:08;;;;;;;;;;;;;;;21.61;36.55;94130.53;4911141;29;19979;-79
2023/09/21 11:23:34;;;;;;;;;;;;;;;21.42;36.03;94129.63;4915408;29;19926;-78
2023/09/21 11:26:00;;;;;;;;;;;;;;;21.72;35.93;94125.00;4913489;28;19989;-78
2023/09/21 11:28:26;;;;;;;;;;;;;;;21.58;35.03;94125.66;4926566;28;19926;-78
2023/09/21 11:30:51;;;;;;;;;;;;;;;21.67;38.39;94120.44;4923717;29;19922;-78
2023/09/21 11:33:20;;;;;;;;;;;;;;;21.82;35.71;94108.63;4934762;28;19953;-77
2023/09/21 11:35:45;;;;;;;;;;;;;;;21.71;35.66;94112.56;4907589;29;20436;-77
2023/09/21 11:38:12;;;;;;;;;;;;;;;21.52;36.17;94107.88;4914903;29;19965;-78
2023/09/21 11:40:37;;;;;;;;;;;;;;;21.69;34.88;94099.28;4921691;29;19985;-78
2023/09/21 11:43:02;;;;;;;;;;;;;;;21.57;35.77;94102.41;4922128;29;20415;-78
2023/09/21 11:45:28;;;;;;;;;;;;;;;21.74;35.42;94095.72;4918084;29;20407;-77
2023/09/21 11:47:54;;;;;;;;;;;;;;;21.99;35.61;94102.00;4930853;28;20176;-77
2023/09/21 11:50:23;;;;;;;;;;;;;;;21.73;35.96;94100.34;4923191;29;20618;-78
2023/09/21 11:52:54;;;;;;;;;;;;;;;21.70;35.76;94098.22;4918787;29;20255;-78
2023/09/21 11:55:28;;;;;;;;;;;;;;;21.86;35.72;94098.84;4926858;29;20017;-78
2023/09/21 11:58:13;;;;;;;;;;;;;;;21.90;35.74;94099.88;4925665;28;20130;-77
2023/09/21 12:00:45;;;;;;;;;;;;;;;22.12;34.43;94089.66;4921257;28;19926;-79
2023/09/21 12:03:15;;;;;;;;;;;;;;;22.12;34.16;94086.94;4930059;28;20022;-76
2023/09/21 12:05:41;;;;;;;;;;;;;;;22.24;34.54;94086.53;4915280;29;20399;-77
2023/09/21 12:08:06;;;;;;;;;;;;;;;22.60;35.57;94074.44;4911369;29;19926;-78
2023/09/21 12:10:32;;;;;;;;;;;;;;;22.65;34.64;94074.34;4912560;29;19926;-78
2023/09/21 12:13:19;;;;;;;;;;;;;;;22.74;34.69;94066.38;4909347;29;20424;-78
2023/09/21 12:15:44;;;;;;;;;;;;;;;23.05;33.69;94063.19;4912705;29;20529;-78
2023/09/21 12:18:12;;;;;;;;;;;;;;;21.42;37.03;94067.38;4910925;29;19926;-77
2023/09/21 12:20:49;;;;;;;;;;;;;;;21.97;35.77;94066.25;4911736;29;20463;-78
2023/09/21 12:23:14;;;;;;;;;;;;;;;23.19;34.20;94065.97;4912355;29;19962;-78
2023/09/21 12:25:39;;;;;;;;;;;;;;;23.30;33.86;94055.72;4913759;29;20094;-77
2023/09/21 12:28:05;;;;;;;;;;;;;;;23.63;34.14;94053.00;4915771;29;20118;-77
2023/09/21 12:30:30;;;;;;;;;;;;;;;23.44;33.32;94044.91;4933105;29;20431;-76
2023/09/21 12:32:56;;;;;;;;;;;;;;;23.20;33.43;94037.72;4921212;29;19934;-78
2023/09/21 12:35:25;;;;;;;;;;;;;;;23.39;34.04;94042.28;4917009;29;19934;-78
2023/09/21 12:37:50;;;;;;;;;;;;;;;23.41;32.56;94024.59;4913837;29;19935;-77
2023/09/21 12:40:15;;;;;;;;;;;;;;;23.02;33.85;94023.06;4922724;28;20347;-78
2023/09/21 12:42:42;;;;;;;;;;;;;;;22.86;33.37;94022.50;4917741;29;19958;-78
2023/09/21 12:45:15;;;;;;;;;;;;;;;23.02;32.84;94023.06;4911429;29;20486;-78